Time;durP1;ratioP1;P1;durP2;ratioP2;P2;SDS_P1;SDS_P2;PMS_P1;PMS_P2;Temp;Humidity;BMP_temperature;BMP_pressure;BME280_temperature;BME280_humidity;BME280_pressure;Samples;Min_cycle;Max_cycle;Signal;HPM_P1;HPM_P2
2023/07/01 00:01:44;;;;;;;8.68;2.50;;;;;;;16.09;100.00;99525.38;6150603;23;20400;-91
2023/07/01 00:04:09;;;;;;;10.25;2.50;;;;;;;16.00;100.00;99524.47;6150413;23;20002;-91
2023/07/01 00:06:35;;;;;;;11.65;2.97;;;;;;;16.13;100.00;99536.34;6150945;23;20005;-90
2023/07/01 00:09:00;;;;;;;14.35;3.15;;;;;;;16.00;100.00;99534.09;6150868;22;20006;-90
2023/07/01 00:11:26;;;;;;;16.30;3.80;;;;;;;16.02;100.00;99538.19;6150378;23;20005;-91
2023/07/01 00:13:51;;;;;;;17.10;3.58;;;;;;;16.01;100.00;99533.09;6253821;22;20008;-92
2023/07/01 00:16:17;;;;;;;22.80;5.07;;;;;;;16.02;100.00;99525.16;6150412;23;20001;-90
2023/07/01 00:18:43;;;;;;;17.02;4.82;;;;;;;15.91;100.00;99524.53;6150701;23;20092;-91
2023/07/01 00:21:08;;;;;;;29.63;5.85;;;;;;;15.97;100.00;99529.13;6150345;23;20416;-91
2023/07/01 00:23:34;;;;;;;20.05;4.35;;;;;;;15.94;100.00;99525.06;6150470;23;20005;-92
2023/07/01 00:26:00;;;;;;;23.92;4.90;;;;;;;15.89;100.00;99516.84;6253287;22;20493;-91
2023/07/01 00:28:25;;;;;;;23.52;5.22;;;;;;;15.94;100.00;99519.84;6150344;23;20002;-90
2023/07/01 00:30:50;;;;;;;17.83;3.90;;;;;;;15.97;100.00;99523.94;6253237;22;20096;-89
2023/07/01 00:33:16;;;;;;;20.08;5.65;;;;;;;15.91;100.00;99517.53;6252938;22;20093;-89
2023/07/01 00:35:41;;;;;;;19.00;5.38;;;;;;;15.89;100.00;99514.25;6150858;23;20002;-91
2023/07/01 00:38:07;;;;;;;13.80;4.07;;;;;;;15.92;100.00;99520.94;6253267;22;20048;-90
2023/07/01 00:40:32;;;;;;;19.27;4.40;;;;;;;15.88;100.00;99519.63;6150735;22;20424;-91
2023/07/01 00:42:57;;;;;;;17.05;4.70;;;;;;;15.93;100.00;99512.19;6150356;23;20005;-90
2023/07/01 00:45:23;;;;;;;16.65;6.03;;;;;;;15.98;100.00;99512.56;6150696;23;20032;-91
2023/07/01 00:47:48;;;;;;;23.15;5.28;;;;;;;15.92;100.00;99510.53;6252860;22;20349;-91
2023/07/01 00:50:14;;;;;;;13.63;5.32;;;;;;;15.96;100.00;99506.69;6150211;23;20002;-91
2023/07/01 00:52:41;;;;;;;19.10;6.25;;;;;;;16.00;100.00;99502.84;6150534;22;20009;-90
2023/07/01 00:55:08;;;;;;;17.33;5.07;;;;;;;16.00;100.00;99502.84;6150545;23;20086;-91
2023/07/01 00:57:34;;;;;;;19.38;6.88;;;;;;;15.94;100.00;99503.41;6150524;23;20036;-90
2023/07/01 01:00:10;;;;;;;19.65;6.55;;;;;;;15.80;100.00;99502.09;6252976;22;19998;-90
2023/07/01 01:02:53;;;;;;;15.00;5.10;;;;;;;15.86;100.00;99511.13;6150094;23;20550;-90
2023/07/01 01:05:25;;;;;;;14.68;5.88;;;;;;;15.89;100.00;99508.25;6252514;22;20424;-90
2023/07/01 01:07:57;;;;;;;16.45;5.68;;;;;;;15.80;100.00;99502.09;6150065;22;20009;-90
2023/07/01 01:10:24;;;;;;;20.27;7.35;;;;;;;15.70;100.00;99506.53;6150258;23;20413;-89
2023/07/01 01:12:56;;;;;;;15.70;5.35;;;;;;;15.83;100.00;99504.44;6150461;23;20017;-89
2023/07/01 01:15:22;;;;;;;14.57;4.55;;;;;;;15.87;100.00;99502.34;6253145;22;20012;-91
2023/07/01 01:17:52;;;;;;;17.08;5.03;;;;;;;15.81;100.00;99504.56;6150344;23;20336;-89
2023/07/01 01:20:20;;;;;;;17.45;4.95;;;;;;;15.74;100.00;99508.72;6150871;23;20305;-90
2023/07/01 01:23:32;;;;;;;21.13;5.28;;;;;;;15.74;100.00;99511.31;6150607;23;20037;-91
2023/07/01 01:26:07;;;;;;;14.93;5.68;;;;;;;15.67;100.00;99502.41;6150345;23;20005;-91
2023/07/01 01:28:36;;;;;;;12.10;4.32;;;;;;;15.69;100.00;99499.69;6150640;23;20376;-90
2023/07/01 01:31:02;;;;;;;19.05;5.80;;;;;;;15.69;100.00;99499.69;6150639;23;20061;-88
2023/07/01 01:33:27;;;;;;;14.43;5.05;;;;;;;15.62;100.00;99509.84;6150799;23;19997;-89
2023/07/01 01:36:00;;;;;;;16.38;5.43;;;;;;;15.66;100.00;99511.19;6150171;23;20006;-90
2023/07/01 01:38:31;;;;;;;20.45;5.68;;;;;;;15.70;100.00;99502.16;6150717;23;20106;-90
2023/07/01 01:41:05;;;;;;;14.60;4.93;;;;;;;15.73;100.00;99507.09;6150357;23;20084;-90
2023/07/01 01:43:37;;;;;;;15.10;4.30;;;;;;;15.81;100.00;99504.56;6253282;22;20010;-90
2023/07/01 01:46:05;;;;;;;19.27;4.47;;;;;;;15.73;100.00;99495.88;6148437;23;20005;-89
2023/07/01 01:48:31;;;;;;;19.00;5.05;;;;;;;15.64;100.00;99502.72;6149900;23;20002;-88
2023/07/01 01:50:58;;;;;;;18.88;5.63;;;;;;;15.74;100.00;99507.91;6150306;23;20001;-90
2023/07/01 01:53:27;;;;;;;16.83;4.55;;;;;;;15.66;100.00;99500.78;6150117;23;20006;-90
2023/07/01 01:55:54;;;;;;;24.90;6.53;;;;;;;15.75;100.00;99515.56;6149856;23;20001;-91
2023/07/01 01:58:20;;;;;;;17.63;5.78;;;;;;;15.58;100.00;99509.31;6149926;23;20010;-91
2023/07/01 02:00:46;;;;;;;22.75;5.57;;;;;;;15.75;100.00;99505.16;6149626;23;20384;-90
2023/07/01 02:03:12;;;;;;;15.75;5.65;;;;;;;15.80;100.00;99502.94;6149490;23;20080;-90
2023/07/01 02:05:37;;;;;;;16.85;5.65;;;;;;;15.69;100.00;99505.69;6150050;23;20001;-90
2023/07/01 02:08:04;;;;;;;22.45;6.00;;;;;;;15.70;100.00;99504.75;6150650;23;20009;-89
2023/07/01 02:10:30;;;;;;;15.00;4.95;;;;;;;15.70;100.00;99491.75;6151278;23;20006;-89
2023/07/01 02:12:55;;;;;;;16.85;5.75;;;;;;;15.71;100.00;99503.81;6151297;23;20098;-91
2023/07/01 02:15:21;;;;;;;23.80;5.35;;;;;;;15.70;100.00;99489.16;6151098;23;20001;-89
2023/07/01 02:17:46;;;;;;;18.30;4.35;;;;;;;15.55;100.00;99493.97;6150931;23;20006;-90
2023/07/01 02:20:12;;;;;;;9.55;3.45;;;;;;;15.54;100.00;99496.75;6151075;23;20006;-89
2023/07/01 02:22:37;;;;;;;12.07;4.15;;;;;;;15.57;100.00;99501.66;6150882;23;20005;-90
2023/07/01 02:25:03;;;;;;;15.73;4.03;;;;;;;15.67;100.00;99497.22;6151532;23;20049;-91
2023/07/01 02:27:30;;;;;;;9.52;3.53;;;;;;;15.59;100.00;99499.72;6151185;23;20436;-91
2023/07/01 02:29:57;;;;;;;15.10;3.90;;;;;;;15.55;100.00;99499.19;6150773;23;20378;-89
2023/07/01 02:32:22;;;;;;;16.90;4.55;;;;;;;15.50;100.00;99501.38;6150773;23;20005;-90
2023/07/01 02:34:47;;;;;;;15.57;5.13;;;;;;;15.58;100.00;99508.47;6151303;23;20005;-91
2023/07/01 02:37:13;;;;;;;12.77;3.95;;;;;;;15.60;100.00;99499.56;6150620;23;20048;-91
2023/07/01 02:39:39;;;;;;;16.58;4.50;;;;;;;15.57;100.00;99499.03;6150415;23;19998;-91
2023/07/01 02:42:05;;;;;;;18.35;4.85;;;;;;;15.48;100.00;99494.69;6254390;22;20017;-90
2023/07/01 02:44:31;;;;;;;14.32;4.80;;;;;;;15.46;100.00;99505.25;6150950;23;20004;-89
2023/07/01 02:46:56;;;;;;;22.90;5.18;;;;;;;15.44;100.00;99501.97;6150999;23;20002;-90
2023/07/01 02:49:22;;;;;;;15.38;4.68;;;;;;;15.44;100.00;99501.16;6150851;23;20005;-92
2023/07/01 02:51:47;;;;;;;16.83;4.68;;;;;;;15.48;100.00;99498.09;6150628;23;20078;-90
2023/07/01 02:54:12;;;;;;;13.07;4.53;;;;;;;15.45;100.00;99500.19;6150709;23;20013;-89
2023/07/01 02:56:38;;;;;;;19.02;4.68;;;;;;;15.44;100.00;99490.75;6150831;23;20008;-92
2023/07/01 02:59:03;;;;;;;25.08;5.55;;;;;;;15.42;100.00;99488.28;6151736;23;20009;-90
2023/07/01 03:01:29;;;;;;;12.18;3.70;;;;;;;15.38;100.00;99490.34;6150673;23;20006;-90
2023/07/01 03:03:55;;;;;;;16.08;4.07;;;;;;;15.36;100.00;99487.09;6150969;23;20006;-91
2023/07/01 03:06:20;;;;;;;13.15;3.53;;;;;;;15.38;100.00;99492.94;6150780;23;20435;-89
2023/07/01 03:08:46;;;;;;;7.32;3.13;;;;;;;15.41;100.00;99491.84;6151036;23;20012;-91
2023/07/01 03:11:11;;;;;;;10.02;2.80;;;;;;;15.30;100.00;99505.84;6150931;23;20363;-91
2023/07/01 03:13:39;;;;;;;8.15;2.97;;;;;;;15.28;100.00;99501.75;6253145;22;20005;-90
2023/07/01 03:16:06;;;;;;;16.25;3.25;;;;;;;15.25;100.00;99495.06;6150696;23;20005;-90
2023/07/01 03:18:34;;;;;;;11.80;4.20;;;;;;;15.28;100.00;99499.97;6150976;23;20375;-90
2023/07/01 03:21:00;;;;;;;15.65;3.88;;;;;;;15.29;100.00;99499.00;6151220;23;20005;-90
2023/07/01 03:23:29;;;;;;;12.80;3.33;;;;;;;15.23;100.00;99509.16;6151026;23;20387;-90
2023/07/01 03:25:54;;;;;;;11.60;3.40;;;;;;;15.32;100.00;99509.13;6254195;22;20010;-90
2023/07/01 03:28:20;;;;;;;9.07;2.88;;;;;;;15.35;100.00;99508.84;6151736;23;20013;-90
2023/07/01 03:30:45;;;;;;;6.68;2.72;;;;;;;15.18;100.00;99501.78;6150951;23;20309;-90
2023/07/01 03:33:12;;;;;;;8.68;2.42;;;;;;;15.05;100.00;99498.66;6254859;22;20059;-90
2023/07/01 03:35:38;;;;;;;7.93;2.30;;;;;;;15.10;100.00;99505.06;6151111;23;20002;-91
2023/07/01 03:38:03;;;;;;;7.38;2.17;;;;;;;15.12;100.00;99499.75;6151485;23;20076;-91
2023/07/01 03:40:29;;;;;;;5.43;1.77;;;;;;;15.15;100.00;99502.06;6150611;23;20029;-90
2023/07/01 03:42:54;;;;;;;5.07;1.55;;;;;;;15.08;100.00;99500.97;6150940;23;20085;-89
2023/07/01 03:45:19;;;;;;;6.80;1.98;;;;;;;15.04;100.00;99510.81;6151031;23;20354;-89
2023/07/01 03:47:45;;;;;;;12.27;2.35;;;;;;;15.13;100.00;99509.97;6150763;23;20004;-88
2023/07/01 03:50:12;;;;;;;8.45;2.05;;;;;;;15.01;100.00;99515.50;6150425;23;20123;-91
2023/07/01 03:52:39;;;;;;;8.68;1.80;;;;;;;15.06;100.00;99514.09;6151103;23;20450;-90
2023/07/01 03:55:06;;;;;;;7.82;2.10;;;;;;;15.06;100.00;99515.88;6151028;23;20006;-90
2023/07/01 03:57:33;;;;;;;10.68;2.17;;;;;;;14.98;100.00;99514.81;6254530;22;20324;-90
2023/07/01 03:59:58;;;;;;;5.95;1.88;;;;;;;15.19;100.00;99508.59;6150805;23;20051;-90
2023/07/01 04:02:23;;;;;;;7.03;2.38;;;;;;;15.22;100.00;99508.34;6151111;23;20359;-91
2023/07/01 04:04:49;;;;;;;10.73;2.08;;;;;;;15.21;100.00;99517.06;6150788;23;20013;-91
2023/07/01 04:07:15;;;;;;;9.27;2.50;;;;;;;15.16;100.00;99516.69;6150863;23;20005;-90
2023/07/01 04:09:41;;;;;;;9.05;2.17;;;;;;;15.13;100.00;99516.97;6253746;22;20332;-89
2023/07/01 04:12:07;;;;;;;7.18;2.03;;;;;;;15.08;100.00;99522.59;6150858;23;20002;-89
2023/07/01 04:14:33;;;;;;;7.28;1.90;;;;;;;15.15;100.00;99509.84;6151324;22;20005;-90
2023/07/01 04:16:58;;;;;;;8.90;1.85;;;;;;;15.16;100.00;99524.47;6151074;23;20002;-91
2023/07/01 04:19:23;;;;;;;10.07;2.25;;;;;;;15.08;100.00;99526.97;6151007;23;19998;-91
2023/07/01 04:21:49;;;;;;;8.02;2.22;;;;;;;15.04;100.00;99520.41;6151041;23;20006;-91
2023/07/01 04:24:14;;;;;;;9.02;2.00;;;;;;;15.01;100.00;99528.47;6151263;23;20033;-90
2023/07/01 04:26:41;;;;;;;7.82;1.38;;;;;;;15.02;100.00;99528.34;6253160;22;20428;-91
2023/07/01 04:29:09;;;;;;;9.55;2.83;;;;;;;14.82;100.00;99532.72;6151319;23;20012;-91
2023/07/01 04:31:34;;;;;;;4.05;1.40;;;;;;;14.90;100.00;99530.28;6151444;23;20375;-90
2023/07/01 04:34:00;;;;;;;7.60;1.42;;;;;;;14.83;100.00;99533.56;6151289;23;20085;-91
2023/07/01 04:36:25;;;;;;;4.40;1.45;;;;;;;14.85;100.00;99522.06;6253325;22;20009;-88
2023/07/01 04:38:50;;;;;;;7.97;1.63;;;;;;;14.89;100.00;99536.41;6150951;23;20002;-89
2023/07/01 04:41:16;;;;;;;5.22;1.90;;;;;;;14.90;100.00;99532.88;6150516;23;20444;-90
2023/07/01 04:43:41;;;;;;;8.68;1.75;;;;;;;14.88;100.00;99534.78;6253211;22;20407;-90
2023/07/01 04:46:07;;;;;;;2.88;1.58;;;;;;;14.80;100.00;99537.22;6253042;22;20051;-90
2023/07/01 04:48:33;;;;;;;6.20;1.65;;;;;;;14.87;100.00;99534.91;6253428;22;20068;-90
2023/07/01 04:50:58;;;;;;;4.82;1.40;;;;;;;14.84;100.00;99538.59;6252598;22;20084;-89
2023/07/01 04:53:23;;;;;;;11.85;2.20;;;;;;;14.77;100.00;99540.09;6151208;23;20486;-91
2023/07/01 04:55:49;;;;;;;8.68;1.88;;;;;;;14.75;100.00;99542.88;6168548;23;20005;-90
2023/07/01 04:58:14;;;;;;;6.38;1.20;;;;;;;14.72;100.00;99540.53;6166350;23;20013;-90
2023/07/01 05:00:40;;;;;;;13.63;1.30;;;;;;;14.71;100.00;99540.66;6168839;23;20053;-90
2023/07/01 05:03:06;;;;;;;6.20;1.73;;;;;;;14.80;100.00;99546.81;6272559;22;20014;-90
2023/07/01 05:05:31;;;;;;;6.18;1.35;;;;;;;14.80;100.00;99544.22;6163053;23;20069;-90
2023/07/01 05:07:57;;;;;;;5.38;1.48;;;;;;;14.82;100.00;99544.91;6166026;22;20424;-89
2023/07/01 05:10:25;;;;;;;9.02;1.35;;;;;;;14.80;100.00;99544.22;6274917;22;20005;-89
2023/07/01 05:12:50;;;;;;;10.18;1.83;;;;;;;14.84;100.00;99556.78;6166926;23;20012;-90
2023/07/01 05:15:16;;;;;;;4.57;1.30;;;;;;;14.81;100.00;99546.69;6158694;23;20072;-90
2023/07/01 05:17:42;;;;;;;8.07;1.80;;;;;;;14.89;100.00;99554.59;6163007;23;20013;-90
2023/07/01 05:20:09;;;;;;;6.22;1.23;;;;;;;14.84;100.00;99554.19;6168808;23;19998;-89
2023/07/01 05:22:34;;;;;;;3.80;1.52;;;;;;;14.87;100.00;99561.69;6167309;23;20009;-90
2023/07/01 05:25:00;;;;;;;3.95;1.60;;;;;;;14.92;100.00;99564.75;6165715;23;20002;-90
2023/07/01 05:27:25;;;;;;;4.03;1.42;;;;;;;14.91;100.00;99563.09;6166010;23;20001;-91
2023/07/01 05:29:51;;;;;;;4.78;1.02;;;;;;;14.91;100.00;99563.09;6164054;23;20001;-90
2023/07/01 05:32:16;;;;;;;5.03;1.13;;;;;;;14.89;100.00;99564.19;6164307;23;20002;-90
2023/07/01 05:34:41;;;;;;;7.85;1.55;;;;;;;14.88;100.00;99567.75;6162004;23;20450;-90
2023/07/01 05:37:07;;;;;;;7.00;1.48;;;;;;;14.96;100.00;99571.28;6261272;22;20019;-91
2023/07/01 05:39:32;;;;;;;9.10;1.83;;;;;;;15.24;100.00;99574.00;6165478;23;20005;-89
2023/07/01 05:41:58;;;;;;;5.57;1.45;;;;;;;15.15;100.00;99569.63;6168761;23;20061;-89
2023/07/01 05:44:25;;;;;;;4.88;1.02;;;;;;;15.24;100.00;99574.00;6167061;23;20012;-90
2023/07/01 05:46:50;;;;;;;4.70;1.55;;;;;;;15.38;100.00;99573.53;6259156;22;20009;-90
2023/07/01 05:49:16;;;;;;;4.35;1.15;;;;;;;15.42;100.00;99571.50;6161844;23;19998;-90
2023/07/01 05:51:41;;;;;;;9.63;1.20;;;;;;;15.41;100.00;99567.25;6264739;22;20013;-90
2023/07/01 05:54:06;;;;;;;4.07;1.17;;;;;;;15.39;100.00;99567.41;6260649;22;20010;-90
2023/07/01 05:56:32;;;;;;;3.75;1.00;;;;;;;15.53;100.00;99567.91;6254429;22;20201;-90
2023/07/01 05:58:57;;;;;;;5.15;0.98;;;;;;;15.43;100.00;99569.72;6151674;23;20002;-91
2023/07/01 06:01:23;;;;;;;7.28;1.38;;;;;;;15.46;100.00;99561.63;6151524;23;20006;-90
2023/07/01 06:03:48;;;;;;;5.15;0.90;;;;;;;15.35;100.00;99563.44;6151160;23;20006;-91
2023/07/01 06:06:13;;;;;;;7.00;1.23;;;;;;;15.56;100.00;99567.66;6150833;23;20005;-91
2023/07/01 06:08:39;;;;;;;3.70;1.00;;;;;;;15.51;100.00;99580.22;6253813;22;20010;-91
2023/07/01 06:11:05;;;;;;;3.90;0.93;;;;;;;15.54;100.00;99579.97;6151164;23;20010;-89
2023/07/01 06:13:30;;;;;;;5.78;1.00;;;;;;;15.54;100.00;99585.97;6150691;23;20006;-90
2023/07/01 06:15:56;;;;;;;5.97;0.98;;;;;;;15.61;100.00;99570.63;6150778;23;20080;-89
2023/07/01 06:18:21;;;;;;;5.47;1.33;;;;;;;15.63;100.00;99577.34;6150543;23;20002;-90
2023/07/01 06:20:46;;;;;;;5.40;0.90;;;;;;;15.67;100.00;99580.47;6150470;23;20081;-91
2023/07/01 06:23:12;;;;;;;6.68;0.80;;;;;;;15.69;100.00;99583.75;6150993;23;20058;-88
2023/07/01 06:25:37;;;;;;;2.47;0.93;;;;;;;15.72;100.00;99580.88;6150709;23;20332;-89
2023/07/01 06:28:03;;;;;;;7.38;0.77;;;;;;;15.78;100.00;99595.13;6150322;23;20001;-89
2023/07/01 06:30:28;;;;;;;5.70;1.15;;;;;;;15.72;100.00;99599.09;6150005;23;20001;-91
2023/07/01 06:32:53;;;;;;;2.50;1.15;;;;;;;15.96;100.00;99603.00;6150038;23;20005;-90
2023/07/01 06:35:19;;;;;;;2.22;0.75;;;;;;;17.05;100.00;99603.84;6252639;22;20005;-91
2023/07/01 06:37:44;;;;;;;5.00;1.00;;;;;;;16.86;95.40;99604.00;6150057;23;20010;-91
2023/07/01 06:40:12;;;;;;;1.88;0.50;;;;;;;16.77;100.00;99605.69;6149456;23;20006;-90
2023/07/01 06:42:38;;;;;;;5.10;1.38;;;;;;;16.61;100.00;99603.75;6149229;23;20005;-90
2023/07/01 06:45:03;;;;;;;2.25;0.80;;;;;;;16.57;100.00;99606.78;6149182;23;20009;-90
2023/07/01 06:47:29;;;;;;;2.78;0.63;;;;;;;16.54;100.00;99609.69;6149366;23;20032;-90
2023/07/01 06:49:55;;;;;;;3.17;0.80;;;;;;;16.51;100.00;99613.41;6149584;23;20005;-90
2023/07/01 06:52:20;;;;;;;2.97;0.75;;;;;;;16.39;100.00;99622.41;6149727;23;20027;-90
2023/07/01 06:54:45;;;;;;;3.60;0.70;;;;;;;16.24;100.00;99617.66;6150799;23;20029;-90
2023/07/01 06:57:11;;;;;;;2.65;0.70;;;;;;;16.25;100.00;99618.47;6150906;23;20332;-90
2023/07/01 06:59:36;;;;;;;2.40;0.75;;;;;;;16.17;100.00;99614.00;6150968;23;20005;-90
2023/07/01 07:02:02;;;;;;;2.75;0.70;;;;;;;16.22;100.00;99621.38;6150479;23;20006;-90
2023/07/01 07:04:27;;;;;;;2.78;0.52;;;;;;;16.32;100.00;99623.94;6150755;23;20451;-89
2023/07/01 07:06:53;;;;;;;4.95;0.60;;;;;;;16.25;100.00;99627.09;6150562;23;20046;-91
2023/07/01 07:09:18;;;;;;;5.22;1.63;;;;;;;16.22;100.00;99627.41;6150810;22;20006;-90
2023/07/01 07:11:43;;;;;;;3.95;0.80;;;;;;;16.11;100.00;99634.56;6151802;23;20006;-90
2023/07/01 07:14:09;;;;;;;4.00;0.80;;;;;;;16.29;100.00;99639.81;6253767;22;20462;-90
2023/07/01 07:16:37;;;;;;;2.80;0.82;;;;;;;16.24;100.00;99635.91;6150819;23;20020;-90
2023/07/01 07:19:02;;;;;;;3.20;0.90;;;;;;;16.38;100.00;99631.16;6150846;23;19998;-90
2023/07/01 07:21:28;;;;;;;1.90;0.80;;;;;;;16.45;100.00;99632.22;6150352;23;20451;-93
2023/07/01 07:23:53;;;;;;;4.22;0.70;;;;;;;16.44;97.75;99623.59;6150672;23;20029;-92
2023/07/01 07:26:19;;;;;;;4.65;1.27;;;;;;;16.47;97.72;99619.88;6150489;23;19997;-91
2023/07/01 07:28:44;;;;;;;6.00;1.63;;;;;;;16.47;96.93;99619.88;6151124;23;20005;-93
2023/07/01 07:31:10;;;;;;;3.90;0.98;;;;;;;16.43;96.52;99621.94;6151184;23;20002;-91
2023/07/01 07:33:35;;;;;;;4.93;0.82;;;;;;;16.58;97.19;99635.31;6150701;23;20002;-92
2023/07/01 07:36:01;;;;;;;2.65;0.70;;;;;;;16.64;93.33;99629.50;6151133;23;20412;-91
2023/07/01 07:38:26;;;;;;;6.38;1.20;;;;;;;17.03;91.88;99636.25;6151891;23;19994;-91
2023/07/01 07:40:51;;;;;;;3.15;0.88;;;;;;;17.39;91.44;99637.03;6151200;22;20111;-93
2023/07/01 07:43:17;;;;;;;4.30;0.88;;;;;;;17.52;87.49;99647.88;6151048;23;20324;-90
2023/07/01 07:45:42;;;;;;;2.28;0.90;;;;;;;17.58;88.38;99654.31;6150881;23;20081;-93
2023/07/01 07:48:08;;;;;;;2.55;0.80;;;;;;;17.40;86.76;99653.50;6150581;23;20002;-90
2023/07/01 07:50:35;;;;;;;2.78;1.08;;;;;;;17.14;84.63;99638.63;6150714;23;20008;-92
2023/07/01 07:53:01;;;;;;;2.85;1.08;;;;;;;17.28;88.19;99650.31;6150558;23;20005;-93
2023/07/01 07:55:27;;;;;;;7.68;1.05;;;;;;;17.29;86.41;99646.75;6253979;22;20087;-92
2023/07/01 07:57:52;;;;;;;4.20;1.20;;;;;;;17.09;88.39;99656.50;6150802;23;20005;-94
2023/07/01 08:00:18;;;;;;;8.02;1.35;;;;;;;17.07;87.71;99638.41;6150903;23;20352;-92
2023/07/01 08:02:47;;;;;;;8.63;1.42;;;;;;;17.10;88.20;99647.72;6150881;23;20008;-94
2023/07/01 08:05:19;;;;;;;4.30;1.30;;;;;;;17.20;88.97;99647.66;6149952;23;20099;-93
2023/07/01 08:07:46;;;;;;;3.85;1.13;;;;;;;17.21;87.06;99650.09;6254047;22;20048;-93
2023/07/01 08:10:12;;;;;;;6.15;1.25;;;;;;;17.19;87.23;99661.63;6150289;23;19998;-90
2023/07/01 08:12:37;;;;;;;5.07;1.08;;;;;;;17.08;87.93;99663.50;6148731;23;20067;-92
2023/07/01 08:15:03;;;;;;;4.32;1.45;;;;;;;17.08;86.69;99658.28;6150303;23;20025;-90
2023/07/01 08:17:29;;;;;;;4.18;1.35;;;;;;;17.05;86.54;99661.22;6150341;23;19998;-93
2023/07/01 08:19:54;;;;;;;3.13;1.23;;;;;;;17.07;85.62;99659.28;6251063;22;20014;-95
2023/07/01 08:22:19;;;;;;;6.13;1.80;;;;;;;16.95;85.63;99663.06;6250997;22;20432;-92
2023/07/01 08:24:45;;;;;;;3.05;1.58;;;;;;;16.99;85.70;99677.44;6252060;22;20340;-92
2023/07/01 08:27:10;;;;;;;3.78;1.52;;;;;;;16.80;85.83;99674.94;6251233;22;20001;-92
2023/07/01 08:29:35;;;;;;;5.43;1.48;;;;;;;16.95;84.35;99675.25;6148389;23;20400;-93
2023/07/01 08:32:01;;;;;;;5.97;1.70;;;;;;;16.98;85.15;99670.59;6148279;23;20013;-91
2023/07/01 08:34:26;;;;;;;3.47;1.63;;;;;;;17.01;83.63;99662.47;6148849;23;20328;-94
2023/07/01 08:36:52;;;;;;;5.78;1.63;;;;;;;17.01;83.49;99665.06;6148440;23;20093;-92
2023/07/01 08:39:17;;;;;;;6.55;1.80;;;;;;;16.99;84.57;99664.41;6148796;23;20009;-92
2023/07/01 08:41:53;;;;;;;3.42;1.67;;;;;;;17.17;84.25;99669.63;6148266;23;20017;-92
2023/07/01 08:44:22;;;;;;;3.28;1.77;;;;;;;17.12;83.62;99671.88;6148960;23;20059;-92
2023/07/01 08:46:52;;;;;;;6.78;2.13;;;;;;;17.04;82.02;99677.81;6148478;23;20002;-92
2023/07/01 08:49:21;;;;;;;6.63;2.28;;;;;;;17.06;83.83;99672.44;6148571;23;20005;-93
2023/07/01 08:51:48;;;;;;;4.57;1.90;;;;;;;17.18;85.21;99681.69;6250804;22;20014;-91
2023/07/01 08:54:16;;;;;;;4.10;2.05;;;;;;;17.21;84.50;99688.38;6147710;23;20017;-91
2023/07/01 08:56:41;;;;;;;5.70;2.20;;;;;;;17.21;84.57;99685.78;6148658;23;20051;-91
2023/07/01 08:59:07;;;;;;;5.82;2.22;;;;;;;17.18;82.83;99686.09;6251568;22;20006;-93
2023/07/01 09:01:33;;;;;;;6.55;2.15;;;;;;;16.99;83.48;99687.84;6149115;23;20009;-91
2023/07/01 09:04:00;;;;;;;4.03;1.73;;;;;;;17.01;84.48;99685.13;6148750;23;20458;-92
2023/07/01 09:06:26;;;;;;;5.53;1.63;;;;;;;16.99;82.89;99692.25;6148619;23;20009;-92
2023/07/01 09:08:51;;;;;;;4.10;1.65;;;;;;;17.15;83.38;99691.63;6148687;22;20348;-90
2023/07/01 09:11:18;;;;;;;3.25;1.73;;;;;;;17.07;83.07;99690.56;6148601;23;20020;-90
2023/07/01 09:13:44;;;;;;;2.95;1.77;;;;;;;17.17;83.49;99685.28;6251613;22;20028;-93
2023/07/01 09:16:09;;;;;;;5.05;1.80;;;;;;;17.22;82.70;99687.44;6149369;23;20001;-91
2023/07/01 09:18:35;;;;;;;3.25;1.48;;;;;;;17.67;80.48;99691.72;6148743;23;20480;-92
2023/07/01 09:21:01;;;;;;;3.58;2.13;;;;;;;18.03;78.15;99686.44;6148230;23;20318;-92
2023/07/01 09:23:31;;;;;;;3.75;2.05;;;;;;;18.50;76.85;99681.56;6149101;23;20005;-92
2023/07/01 09:26:13;;;;;;;4.57;2.33;;;;;;;18.54;75.89;99685.53;6148728;23;20488;-92
2023/07/01 09:28:39;;;;;;;;;;;;;;;18.43;76.10;99683.19;6150302;23;20005;-92
2023/07/01 09:31:08;;;;;;;5.47;2.30;;;;;;;18.42;74.20;99675.50;6149348;23;19904;-91
2023/07/01 09:33:35;;;;;;;3.72;2.33;;;;;;;18.46;74.43;99676.81;6150300;23;20380;-92
2023/07/01 09:36:01;;;;;;;5.47;2.63;;;;;;;18.47;71.25;99670.63;6149498;23;20002;-90
2023/07/01 09:38:28;;;;;;;6.60;2.50;;;;;;;18.70;70.23;99679.50;6150265;23;20027;-92
2023/07/01 09:40:53;;;;;;;6.72;2.97;;;;;;;18.97;69.07;99678.47;6150068;23;20001;-90
2023/07/01 09:43:19;;;;;;;6.18;2.95;;;;;;;18.93;67.86;99673.72;6149294;23;20013;-91
2023/07/01 09:45:54;;;;;;;10.55;3.17;;;;;;;18.74;70.08;99675.59;6148858;23;20016;-93
2023/07/01 09:48:21;;;;;;;5.35;3.03;;;;;;;18.62;71.29;99676.88;6251439;22;20367;-94
2023/07/01 09:50:48;;;;;;;5.50;2.50;;;;;;;18.26;71.85;99686.69;6251827;22;20002;-93
2023/07/01 09:53:21;;;;;;;9.52;3.42;;;;;;;18.04;72.17;99677.59;6149195;23;20170;-91
2023/07/01 09:55:47;;;;;;;7.10;3.22;;;;;;;17.98;75.25;99686.06;6251468;22;20409;-93
2023/07/01 09:58:14;;;;;;;9.93;3.83;;;;;;;18.06;74.26;99670.44;6148821;23;20009;-89
2023/07/01 10:00:43;;;;;;;9.07;3.88;;;;;;;17.94;73.30;99662.88;6148680;23;20127;-92
2023/07/01 10:03:08;;;;;;;9.50;4.50;;;;;;;18.04;73.14;99677.59;6149443;23;20084;-91
2023/07/01 10:05:34;;;;;;;9.15;3.50;;;;;;;17.95;74.21;99674.97;6148445;23;20033;-91
2023/07/01 10:07:59;;;;;;;11.23;4.50;;;;;;;17.79;74.19;99689.66;6251420;22;20013;-93
2023/07/01 10:10:25;;;;;;;11.82;4.38;;;;;;;17.51;77.45;99684.59;6251446;22;20009;-93
2023/07/01 10:12:52;;;;;;;9.35;4.55;;;;;;;17.59;79.08;99687.25;6148668;23;19997;-92
2023/07/01 10:15:30;;;;;;;10.40;5.28;;;;;;;17.55;81.21;99689.31;6250731;22;19998;-92
2023/07/01 10:17:57;;;;;;;16.15;5.65;;;;;;;17.47;80.24;99689.28;6148766;23;20012;-92
2023/07/01 10:20:30;;;;;;;11.63;5.53;;;;;;;17.52;78.20;99688.81;6250989;22;20071;-93
2023/07/01 10:22:57;;;;;;;12.35;5.22;;;;;;;17.30;79.12;99695.31;6148285;23;20035;-89
2023/07/01 10:25:29;;;;;;;14.88;5.65;;;;;;;17.42;78.36;99708.97;6149659;23;20049;-93
2023/07/01 10:27:59;;;;;;;8.55;4.35;;;;;;;17.62;77.66;99712.22;6251298;22;20598;-92
2023/07/01 10:30:25;;;;;;;11.93;4.32;;;;;;;17.75;74.98;99703.03;6253207;22;20076;-93
2023/07/01 10:32:51;;;;;;;10.23;4.25;;;;;;;17.95;72.76;99711.50;6149441;23;20076;-93
2023/07/01 10:35:16;;;;;;;10.68;4.55;;;;;;;18.05;71.47;99708.00;6150233;23;20075;-92
2023/07/01 10:37:44;;;;;;;9.80;4.25;;;;;;;18.06;72.36;99707.00;6149600;23;20009;-91
2023/07/01 10:40:27;;;;;;;11.63;4.82;;;;;;;18.17;71.34;99704.13;6252971;22;19998;-91
2023/07/01 10:43:23;;;;;;;9.75;5.05;;;;;;;18.26;72.71;99697.16;6252897;22;20093;-92
2023/07/01 10:46:23;;;;;;;11.82;4.88;;;;;;;18.38;71.17;99707.16;6149634;23;20010;-93
2023/07/01 10:49:05;;;;;;;9.65;4.30;;;;;;;18.82;69.82;99708.81;6149478;22;20036;-90
2023/07/01 10:51:31;;;;;;;11.43;4.20;;;;;;;18.74;69.17;99699.13;6148917;23;20001;-92
2023/07/01 10:54:00;;;;;;;9.88;4.72;;;;;;;19.13;69.50;99695.97;6149820;23;20006;-92
2023/07/01 10:56:31;;;;;;;12.48;6.05;;;;;;;19.41;68.15;99704.34;6149801;23;20074;-92
2023/07/01 10:59:20;;;;;;;10.65;5.60;;;;;;;19.20;67.86;99699.59;6149821;23;20005;-92
2023/07/01 11:01:48;;;;;;;12.43;5.45;;;;;;;18.98;69.66;99702.84;6149243;23;20005;-92
2023/07/01 11:04:14;;;;;;;10.35;4.50;;;;;;;18.91;67.22;99696.59;6148504;23;20455;-92
2023/07/01 11:06:46;;;;;;;9.45;5.65;;;;;;;18.85;67.46;99712.91;6149001;23;20005;-91
2023/07/01 11:09:13;;;;;;;11.45;5.65;;;;;;;18.89;67.85;99693.31;6148369;22;20016;-92
2023/07/01 11:11:38;;;;;;;11.95;5.90;;;;;;;18.75;68.19;99700.78;6149080;23;20029;-92
2023/07/01 11:14:06;;;;;;;11.95;5.80;;;;;;;18.86;68.80;99709.34;6149073;23;20424;-92
2023/07/01 11:16:33;;;;;;;12.80;6.40;;;;;;;19.13;67.55;99714.28;6149959;23;20002;-92
2023/07/01 11:19:07;;;;;;;14.50;6.68;;;;;;;19.06;66.68;99723.75;6252272;22;20530;-92
2023/07/01 11:21:33;;;;;;;13.98;7.30;;;;;;;19.21;66.82;99716.91;6149189;23;20009;-92
2023/07/01 11:24:03;;;;;;;18.42;7.70;;;;;;;19.31;66.39;99723.78;6148963;23;20005;-93